Time;durP1;ratioP1;P1;durP2;ratioP2;P2;SDS_P1;SDS_P2;PMS_P1;PMS_P2;Temp;Humidity;BMP_temperature;BMP_pressure;BME280_temperature;BME280_humidity;BME280_pressure;Samples;Min_cycle;Max_cycle;Signal;HPM_P1;HPM_P2
2023/05/24 00:01:37;;;;;;;15.30;4.03;;;;;;;;;;5053342;28;20494;-80
2023/05/24 00:04:03;;;;;;;18.38;4.93;;;;;;;;;;5035944;28;20041;-80
2023/05/24 00:06:33;;;;;;;18.23;4.80;;;;;;;;;;5052946;28;20095;-80
2023/05/24 00:09:00;;;;;;;19.98;4.70;;;;;;;;;;5021147;28;20087;-80
2023/05/24 00:11:26;;;;;;;18.00;4.75;;;;;;;;;;5053058;28;20481;-80
2023/05/24 00:13:52;;;;;;;17.80;4.70;;;;;;;;;;5053004;28;20037;-80
2023/05/24 00:16:19;;;;;;;18.55;5.28;;;;;;;;;;5036622;28;20052;-80
2023/05/24 00:18:45;;;;;;;20.92;4.57;;;;;;;;;;5037827;28;20128;-80
2023/05/24 00:21:12;;;;;;;20.52;5.00;;;;;;;;;;5053249;28;20049;-80
2023/05/24 00:23:38;;;;;;;17.77;4.65;;;;;;;;;;5052835;28;20041;-81
2023/05/24 00:26:05;;;;;;;19.92;5.15;;;;;;;;;;5035577;28;20056;-80
2023/05/24 00:28:32;;;;;;;19.25;5.30;;;;;;;;;;5041688;28;20051;-80
2023/05/24 00:30:58;;;;;;;22.70;5.05;;;;;;;;;;5056353;28;20044;-81
2023/05/24 00:33:24;;;;;;;19.42;4.95;;;;;;;;;;5052620;28;20045;-80
2023/05/24 00:35:57;;;;;;;24.33;6.07;;;;;;;;;;5052611;28;20505;-80
2023/05/24 00:38:23;;;;;;;17.95;5.75;;;;;;;;;;5036422;28;20048;-79
2023/05/24 00:40:49;;;;;;;22.60;5.82;;;;;;;;;;5019979;28;20123;-80
2023/05/24 00:43:16;;;;;;;32.17;5.78;;;;;;;;;;5052651;28;20053;-81
2023/05/24 00:45:42;;;;;;;23.92;5.78;;;;;;;;;;5052044;28;20045;-81
2023/05/24 00:48:09;;;;;;;27.73;5.50;;;;;;;;;;5052754;28;20500;-79
2023/05/24 00:50:36;;;;;;;25.77;6.13;;;;;;;;;;5056502;28;20088;-80
2023/05/24 00:53:03;;;;;;;23.58;4.95;;;;;;;;;;5052529;28;20041;-81
2023/05/24 00:55:29;;;;;;;19.60;4.72;;;;;;;;;;5052133;28;20049;-81
2023/05/24 00:57:56;;;;;;;22.85;5.68;;;;;;;;;;5051897;28;20056;-80
2023/05/24 01:00:23;;;;;;;16.10;4.65;;;;;;;;;;5053833;28;20455;-80
2023/05/24 01:02:49;;;;;;;22.50;5.28;;;;;;;;;;5052601;28;20037;-80
2023/05/24 01:05:16;;;;;;;16.45;4.60;;;;;;;;;;5052401;28;20146;-80
2023/05/24 01:07:48;;;;;;;13.63;4.22;;;;;;;;;;5051986;28;20481;-80
2023/05/24 01:10:33;;;;;;;18.13;4.40;;;;;;;;;;5053279;28;20041;-80
2023/05/24 01:13:21;;;;;;;20.92;4.80;;;;;;;;;;5052642;28;20033;-81
2023/05/24 01:16:00;;;;;;;23.30;4.88;;;;;;;;;;5052133;28;20194;-80
2023/05/24 01:18:29;;;;;;;18.98;4.95;;;;;;;;;;5052146;28;20053;-80
2023/05/24 01:21:13;;;;;;;15.10;4.80;;;;;;;;;;5054577;28;20064;-80
2023/05/24 01:23:52;;;;;;;25.35;5.20;;;;;;;;;;5059020;28;20049;-80
2023/05/24 01:26:20;;;;;;;21.08;5.00;;;;;;;;;;5037956;28;20052;-81
2023/05/24 01:28:47;;;;;;;23.25;5.10;;;;;;;;;;5051663;28;20055;-80
2023/05/24 01:31:15;;;;;;;25.08;5.47;;;;;;;;;;5054181;28;20045;-80
2023/05/24 01:33:44;;;;;;;18.50;4.43;;;;;;;;;;5051522;28;20052;-80
2023/05/24 01:36:10;;;;;;;20.05;5.13;;;;;;;;;;5051567;28;20099;-80
2023/05/24 01:38:37;;;;;;;21.77;4.60;;;;;;;;;;5034726;28;20048;-80
2023/05/24 01:41:15;;;;;;;25.60;5.20;;;;;;;;;;5051751;28;20040;-80
2023/05/24 01:43:46;;;;;;;26.02;5.60;;;;;;;;;;5040533;28;20045;-81
2023/05/24 01:46:18;;;;;;;21.65;5.07;;;;;;;;;;5062407;28;20072;-80
2023/05/24 01:48:47;;;;;;;24.80;4.88;;;;;;;;;;5068044;28;20040;-80
2023/05/24 01:51:17;;;;;;;26.73;4.85;;;;;;;;;;5071306;28;20044;-81
2023/05/24 01:53:46;;;;;;;25.45;5.40;;;;;;;;;;5060591;28;20033;-80
2023/05/24 01:56:12;;;;;;;20.83;5.13;;;;;;;;;;5071499;28;20123;-80
2023/05/24 01:58:41;;;;;;;27.00;5.55;;;;;;;;;;5070915;28;20132;-80
2023/05/24 02:01:07;;;;;;;28.52;5.30;;;;;;;;;;5046527;28;20048;-81
2023/05/24 02:03:33;;;;;;;22.05;5.30;;;;;;;;;;5045126;28;20083;-81
2023/05/24 02:05:59;;;;;;;23.88;5.78;;;;;;;;;;5044466;28;20041;-81
2023/05/24 02:08:26;;;;;;;22.25;4.95;;;;;;;;;;5050352;28;20051;-81
2023/05/24 02:10:52;;;;;;;25.50;5.22;;;;;;;;;;5050288;28;20037;-80
2023/05/24 02:13:18;;;;;;;26.17;5.57;;;;;;;;;;5052455;28;20394;-80
2023/05/24 02:15:46;;;;;;;24.70;5.07;;;;;;;;;;5050485;28;20044;-80
2023/05/24 02:18:12;;;;;;;25.15;5.75;;;;;;;;;;5050884;28;20088;-80
2023/05/24 02:20:39;;;;;;;26.75;5.53;;;;;;;;;;5065049;28;20041;-80
2023/05/24 02:23:05;;;;;;;26.70;5.75;;;;;;;;;;5054030;28;20044;-80
2023/05/24 02:25:32;;;;;;;18.60;5.00;;;;;;;;;;5070573;28;20044;-80
2023/05/24 02:27:58;;;;;;;21.25;4.95;;;;;;;;;;5070397;28;20405;-81
2023/05/24 02:30:25;;;;;;;24.58;5.30;;;;;;;;;;5054305;28;20071;-80
2023/05/24 02:32:51;;;;;;;24.35;5.35;;;;;;;;;;5056660;28;20115;-81
2023/05/24 02:35:17;;;;;;;23.65;5.82;;;;;;;;;;5071429;28;20202;-80
2023/05/24 02:37:43;;;;;;;26.35;5.95;;;;;;;;;;5053442;28;20036;-80
2023/05/24 02:40:09;;;;;;;30.45;5.68;;;;;;;;;;5072111;28;20033;-80
2023/05/24 02:42:35;;;;;;;27.25;5.85;;;;;;;;;;5060016;28;20132;-81
2023/05/24 02:45:02;;;;;;;24.50;5.07;;;;;;;;;;5061111;28;20498;-80
2023/05/24 02:47:28;;;;;;;29.63;5.10;;;;;;;;;;5064625;28;20489;-81
2023/05/24 02:49:54;;;;;;;23.30;5.00;;;;;;;;;;5071204;28;20040;-81
2023/05/24 02:52:22;;;;;;;21.75;5.30;;;;;;;;;;5065721;28;20036;-80
2023/05/24 02:54:49;;;;;;;23.38;5.32;;;;;;;;;;5068391;28;20037;-80
2023/05/24 02:57:15;;;;;;;23.45;5.70;;;;;;;;;;5053814;28;20033;-81
2023/05/24 02:59:42;;;;;;;24.65;5.53;;;;;;;;;;5070425;28;20033;-81
2023/05/24 03:02:08;;;;;;;24.38;4.80;;;;;;;;;;5069801;28;20040;-80
2023/05/24 03:04:34;;;;;;;19.67;4.75;;;;;;;;;;5064091;28;20036;-81
2023/05/24 03:07:02;;;;;;;24.33;5.22;;;;;;;;;;5070026;28;20052;-80
2023/05/24 03:09:28;;;;;;;22.38;5.03;;;;;;;;;;5070774;28;20450;-81
2023/05/24 03:11:54;;;;;;;20.25;4.57;;;;;;;;;;5053359;28;20037;-81
2023/05/24 03:14:22;;;;;;;31.33;6.28;;;;;;;;;;5046662;28;20119;-81
2023/05/24 03:16:49;;;;;;;16.60;4.38;;;;;;;;;;5049691;28;20041;-80
2023/05/24 03:19:18;;;;;;;24.65;5.55;;;;;;;;;;5053971;28;20505;-80
2023/05/24 03:21:44;;;;;;;25.40;5.07;;;;;;;;;;5053213;28;20059;-81
2023/05/24 03:24:11;;;;;;;17.58;4.53;;;;;;;;;;5095937;28;20040;-81
2023/05/24 03:26:38;;;;;;;24.70;4.90;;;;;;;;;;5039158;28;20049;-81
2023/05/24 03:29:05;;;;;;;25.23;5.43;;;;;;;;;;5069365;28;20048;-81
2023/05/24 03:31:31;;;;;;;20.33;5.43;;;;;;;;;;5070464;28;20032;-81
2023/05/24 03:33:57;;;;;;;23.55;5.35;;;;;;;;;;5052005;28;20040;-81
2023/05/24 03:36:25;;;;;;;19.63;5.05;;;;;;;;;;5058759;28;20047;-81
2023/05/24 03:38:51;;;;;;;19.73;4.07;;;;;;;;;;5052481;28;20099;-82
2023/05/24 03:41:17;;;;;;;19.70;4.90;;;;;;;;;;5070221;28;20127;-81
2023/05/24 03:43:43;;;;;;;22.75;5.05;;;;;;;;;;5070332;28;20048;-81
2023/05/24 03:46:09;;;;;;;26.33;4.40;;;;;;;;;;5063283;28;20098;-81
2023/05/24 03:48:35;;;;;;;12.18;4.60;;;;;;;;;;5066867;28;20047;-81
2023/05/24 03:51:01;;;;;;;26.67;4.75;;;;;;;;;;5057072;28;20036;-81
2023/05/24 03:53:27;;;;;;;19.73;4.72;;;;;;;;;;5071056;28;20055;-81
2023/05/24 03:55:54;;;;;;;22.02;5.10;;;;;;;;;;5065068;28;20037;-81
2023/05/24 03:58:20;;;;;;;20.23;4.28;;;;;;;;;;5058695;28;20508;-81
2023/05/24 04:00:46;;;;;;;23.35;5.00;;;;;;;;;;5073484;28;20052;-81
2023/05/24 04:03:13;;;;;;;21.20;4.70;;;;;;;;;;5040414;28;20038;-81
2023/05/24 04:05:39;;;;;;;20.90;4.90;;;;;;;;;;5052452;28;20109;-81
2023/05/24 04:08:05;;;;;;;18.52;4.18;;;;;;;;;;5059077;28;20060;-80
2023/05/24 04:10:31;;;;;;;20.40;5.03;;;;;;;;;;5053398;28;20029;-80
2023/05/24 04:12:59;;;;;;;20.58;4.63;;;;;;;;;;5053323;28;20041;-80
2023/05/24 04:15:25;;;;;;;16.35;4.18;;;;;;;;;;5036047;28;20131;-80
2023/05/24 04:17:54;;;;;;;15.63;3.90;;;;;;;;;;5053590;28;20051;-80
2023/05/24 04:20:24;;;;;;;13.88;4.75;;;;;;;;;;5036346;28;20041;-81
2023/05/24 04:22:50;;;;;;;17.90;4.05;;;;;;;;;;5036622;28;20045;-81
2023/05/24 04:25:17;;;;;;;22.60;4.65;;;;;;;;;;5069472;28;20120;-80
2023/05/24 04:27:43;;;;;;;20.83;4.38;;;;;;;;;;5052582;28;20056;-82
2023/05/24 04:30:10;;;;;;;19.40;4.47;;;;;;;;;;5037150;28;20128;-81
2023/05/24 04:32:36;;;;;;;21.20;4.70;;;;;;;;;;5035350;28;20075;-81
2023/05/24 04:35:03;;;;;;;19.25;4.38;;;;;;;;;;5052558;28;20401;-80
2023/05/24 04:37:30;;;;;;;18.08;4.13;;;;;;;;;;5052842;28;20406;-81
2023/05/24 04:39:56;;;;;;;20.73;4.55;;;;;;;;;;5035394;28;20048;-81
2023/05/24 04:42:22;;;;;;;17.20;4.35;;;;;;;;;;5053576;28;20485;-80
2023/05/24 04:44:49;;;;;;;16.38;4.20;;;;;;;;;;5035154;28;20116;-80
2023/05/24 04:47:16;;;;;;;19.95;4.07;;;;;;;;;;5051897;28;20090;-81
2023/05/24 04:49:42;;;;;;;17.30;3.90;;;;;;;;;;5037226;28;20443;-81
2023/05/24 04:52:08;;;;;;;13.25;3.72;;;;;;;;;;5054420;28;20047;-81
2023/05/24 04:54:34;;;;;;;16.17;3.70;;;;;;;;;;5067655;28;20079;-81
2023/05/24 04:57:00;;;;;;;15.05;3.88;;;;;;;;;;5043642;28;20603;-81
2023/05/24 04:59:26;;;;;;;13.18;3.78;;;;;;;;;;5065651;28;20393;-82
2023/05/24 05:01:52;;;;;;;19.00;4.15;;;;;;;;;;5038469;28;20124;-83
2023/05/24 05:04:19;;;;;;;17.63;3.38;;;;;;;;;;5054330;28;20037;-82
2023/05/24 05:06:46;;;;;;;24.52;4.57;;;;;;;;;;5068626;28;20080;-81
2023/05/24 05:09:13;;;;;;;16.13;4.68;;;;;;;;;;5073014;28;20047;-81
2023/05/24 05:11:40;;;;;;;12.95;3.70;;;;;;;;;;5052936;28;20457;-81
2023/05/24 05:14:08;;;;;;;18.23;3.83;;;;;;;;;;5047333;28;20044;-81
2023/05/24 05:16:35;;;;;;;22.30;4.20;;;;;;;;;;5042784;28;20049;-81
2023/05/24 05:19:03;;;;;;;13.13;3.63;;;;;;;;;;5068981;28;20057;-81
2023/05/24 05:21:31;;;;;;;16.55;3.47;;;;;;;;;;5058467;28;20049;-81
2023/05/24 05:23:58;;;;;;;16.77;3.88;;;;;;;;;;5070931;28;20048;-81
2023/05/24 05:26:25;;;;;;;14.40;3.22;;;;;;;;;;5052613;28;20036;-81
2023/05/24 05:28:53;;;;;;;17.77;3.70;;;;;;;;;;5059058;28;20486;-81
2023/05/24 05:31:19;;;;;;;15.55;3.53;;;;;;;;;;5054727;28;20047;-81
2023/05/24 05:33:45;;;;;;;24.75;4.47;;;;;;;;;;5071785;28;20036;-81
2023/05/24 05:36:11;;;;;;;19.75;4.07;;;;;;;;;;5071142;28;20080;-81
2023/05/24 05:38:38;;;;;;;20.63;4.55;;;;;;;;;;5061792;28;20456;-81
2023/05/24 05:41:04;;;;;;;17.75;4.00;;;;;;;;;;5050014;28;20036;-81
2023/05/24 05:43:30;;;;;;;14.60;3.60;;;;;;;;;;5071828;28;20040;-81
2023/05/24 05:45:57;;;;;;;22.23;4.45;;;;;;;;;;5070079;28;20493;-81
2023/05/24 05:48:23;;;;;;;20.08;3.55;;;;;;;;;;5099402;28;20045;-81
2023/05/24 05:50:49;;;;;;;19.45;3.95;;;;;;;;;;5072424;28;20036;-81
2023/05/24 05:53:15;;;;;;;20.70;3.70;;;;;;;;;;5070497;28;20040;-81
2023/05/24 05:55:42;;;;;;;16.10;3.97;;;;;;;;;;5071282;28;20071;-81
2023/05/24 05:58:08;;;;;;;20.75;3.40;;;;;;;;;;5068075;28;20493;-81
2023/05/24 06:00:34;;;;;;;17.75;3.70;;;;;;;;;;5071413;28;20071;-81
2023/05/24 06:03:00;;;;;;;20.15;3.83;;;;;;;;;;5071409;28;20033;-81
2023/05/24 06:05:26;;;;;;;17.05;4.13;;;;;;;;;;5066230;28;20036;-81
2023/05/24 06:07:52;;;;;;;26.25;4.20;;;;;;;;;;5071010;28;20063;-81
2023/05/24 06:10:18;;;;;;;19.33;4.15;;;;;;;;;;5033911;28;20048;-81
2023/05/24 06:12:44;;;;;;;21.70;4.28;;;;;;;;;;5054435;28;20037;-81
2023/05/24 06:15:11;;;;;;;16.75;4.15;;;;;;;;;;5068248;28;20497;-81
2023/05/24 06:17:37;;;;;;;17.50;4.28;;;;;;;;;;5054916;28;20471;-81
2023/05/24 06:20:06;;;;;;;17.73;4.15;;;;;;;;;;5068594;28;20067;-81
2023/05/24 06:22:35;;;;;;;14.45;2.90;;;;;;;;;;5071148;28;20044;-81
2023/05/24 06:25:01;;;;;;;17.42;3.40;;;;;;;;;;5070924;28;20044;-81
2023/05/24 06:27:29;;;;;;;14.27;3.25;;;;;;;;;;5069312;28;20052;-81
2023/05/24 06:29:55;;;;;;;20.42;3.20;;;;;;;;;;5045069;28;20319;-81
2023/05/24 06:32:21;;;;;;;18.70;3.53;;;;;;;;;;5064591;28;20040;-81
2023/05/24 06:34:47;;;;;;;16.48;4.00;;;;;;;;;;5060436;28;20489;-80
2023/05/24 06:37:14;;;;;;;15.73;3.50;;;;;;;;;;5052640;28;20043;-81
2023/05/24 06:39:40;;;;;;;17.38;3.60;;;;;;;;;;5056224;28;20101;-81
2023/05/24 06:42:07;;;;;;;16.75;3.35;;;;;;;;;;5048413;28;20044;-80
2023/05/24 06:44:33;;;;;;;15.90;3.90;;;;;;;;;;5072217;28;20041;-80
2023/05/24 06:47:04;;;;;;;18.05;3.72;;;;;;;;;;5072141;28;20051;-80
2023/05/24 06:49:30;;;;;;;13.88;3.70;;;;;;;;;;5049361;28;20500;-81
2023/05/24 06:51:56;;;;;;;12.82;3.40;;;;;;;;;;5062561;28;20475;-80
2023/05/24 06:54:22;;;;;;;16.27;3.17;;;;;;;;;;5070656;28;20618;-80
2023/05/24 06:56:48;;;;;;;16.05;3.25;;;;;;;;;;5070650;28;20393;-80
2023/05/24 06:59:15;;;;;;;15.65;3.80;;;;;;;;;;5071837;28;20065;-80
2023/05/24 07:01:41;;;;;;;19.20;3.38;;;;;;;;;;5040889;28;20110;-81
2023/05/24 07:04:11;;;;;;;15.23;3.70;;;;;;;;;;5070801;28;20094;-80
2023/05/24 07:06:38;;;;;;;20.35;3.67;;;;;;;;;;5070275;28;20049;-81
2023/05/24 07:09:04;;;;;;;23.60;3.30;;;;;;;;;;5054347;28;20033;-80
2023/05/24 07:11:30;;;;;;;21.13;3.95;;;;;;;;;;5058826;28;20083;-81
2023/05/24 07:13:57;;;;;;;15.20;3.15;;;;;;;;;;5070399;28;20040;-81
2023/05/24 07:16:23;;;;;;;18.48;3.35;;;;;;;;;;5063296;28;20044;-81
2023/05/24 07:18:49;;;;;;;18.15;3.85;;;;;;;;;;5054945;28;20405;-81
2023/05/24 07:21:15;;;;;;;15.75;3.20;;;;;;;;;;5052005;28;20060;-81
2023/05/24 07:23:41;;;;;;;18.85;3.28;;;;;;;;;;5060411;28;20119;-81
2023/05/24 07:26:11;;;;;;;16.88;3.50;;;;;;;;;;5074459;28;20036;-81
2023/05/24 07:28:39;;;;;;;13.38;3.33;;;;;;;;;;5046610;28;20103;-81
2023/05/24 07:31:06;;;;;;;16.02;3.00;;;;;;;;;;5074338;28;20044;-81
2023/05/24 07:33:33;;;;;;;12.55;3.03;;;;;;;;;;5059484;28;20041;-81
2023/05/24 07:35:59;;;;;;;11.55;3.20;;;;;;;;;;5074230;28;20405;-81
2023/05/24 07:38:25;;;;;;;16.60;3.00;;;;;;;;;;5065608;28;20055;-81
2023/05/24 07:40:51;;;;;;;14.50;3.38;;;;;;;;;;5071906;28;20070;-81
2023/05/24 07:43:18;;;;;;;15.27;3.03;;;;;;;;;;5063266;28;20084;-81
2023/05/24 07:45:44;;;;;;;13.82;3.33;;;;;;;;;;5074634;28;20386;-81
2023/05/24 07:48:10;;;;;;;19.10;4.13;;;;;;;;;;5074910;28;20045;-81
2023/05/24 07:50:37;;;;;;;13.25;3.10;;;;;;;;;;5072541;28;20044;-81
2023/05/24 07:53:04;;;;;;;14.15;3.05;;;;;;;;;;5066875;28;20517;-80
2023/05/24 07:55:30;;;;;;;19.10;3.13;;;;;;;;;;5049154;28;20428;-81
2023/05/24 07:57:56;;;;;;;13.60;3.08;;;;;;;;;;5064314;28;20086;-82
2023/05/24 08:00:22;;;;;;;12.48;3.60;;;;;;;;;;5059937;28;20119;-81
2023/05/24 08:02:49;;;;;;;13.93;2.97;;;;;;;;;;5064781;28;20048;-81
2023/05/24 08:05:15;;;;;;;10.48;2.92;;;;;;;;;;5059435;28;20094;-81
2023/05/24 08:07:41;;;;;;;15.00;3.50;;;;;;;;;;5073218;28;20044;-81
2023/05/24 08:10:12;;;;;;;14.10;2.97;;;;;;;;;;5072758;28;20441;-81
2023/05/24 08:12:39;;;;;;;15.10;3.13;;;;;;;;;;5058192;28;20036;-81
2023/05/24 08:15:05;;;;;;;11.98;3.13;;;;;;;;;;5061692;28;20047;-81
2023/05/24 08:17:31;;;;;;;12.13;3.13;;;;;;;;;;5069852;28;20051;-80
2023/05/24 08:19:57;;;;;;;12.98;3.08;;;;;;;;;;5072877;28;20466;-81
2023/05/24 08:22:24;;;;;;;11.95;3.05;;;;;;;;;;5058264;28;20060;-81
2023/05/24 08:24:51;;;;;;;11.27;3.33;;;;;;;;;;5062720;28;20072;-81
2023/05/24 08:27:17;;;;;;;14.55;3.10;;;;;;;;;;5058665;28;20052;-81
2023/05/24 08:29:43;;;;;;;12.82;2.90;;;;;;;;;;5072219;28;20044;-81
2023/05/24 08:32:10;;;;;;;14.20;3.33;;;;;;;;;;5037440;28;20045;-81
2023/05/24 08:34:36;;;;;;;13.30;3.20;;;;;;;;;;5055704;28;20040;-81
2023/05/24 08:37:03;;;;;;;10.45;3.08;;;;;;;;;;5071035;28;20052;-81
2023/05/24 08:39:29;;;;;;;12.07;3.13;;;;;;;;;;5072584;28;20059;-81
2023/05/24 08:41:55;;;;;;;10.80;2.50;;;;;;;;;;5044028;28;20125;-81
2023/05/24 08:44:22;;;;;;;10.90;2.47;;;;;;;;;;5071844;28;20182;-81
2023/05/24 08:46:48;;;;;;;10.70;2.80;;;;;;;;;;5062147;28;20045;-81
2023/05/24 08:49:15;;;;;;;10.60;2.85;;;;;;;;;;5045198;28;20115;-81
2023/05/24 08:51:41;;;;;;;11.98;3.03;;;;;;;;;;5062439;28;20037;-81
2023/05/24 08:54:08;;;;;;;10.43;2.63;;;;;;;;;;5054829;28;20029;-81
2023/05/24 08:56:34;;;;;;;11.73;2.88;;;;;;;;;;5062026;28;20500;-81
2023/05/24 08:59:00;;;;;;;15.32;3.03;;;;;;;;;;5054251;28;20037;-81
2023/05/24 09:01:26;;;;;;;11.98;2.67;;;;;;;;;;5039760;28;20040;-81
2023/05/24 09:03:53;;;;;;;12.95;2.83;;;;;;;;;;5072058;28;20482;-81
2023/05/24 09:06:19;;;;;;;11.55;2.80;;;;;;;;;;5073721;28;20494;-82
2023/05/24 09:08:45;;;;;;;8.98;2.60;;;;;;;;;;5072211;28;20049;-81
2023/05/24 09:11:13;;;;;;;10.35;2.75;;;;;;;;;;5047681;28;20080;-81
2023/05/24 09:13:39;;;;;;;12.75;2.88;;;;;;;;;;5056759;28;20041;-81
2023/05/24 09:16:06;;;;;;;13.25;2.72;;;;;;;;;;5034310;28;20102;-81
2023/05/24 09:18:32;;;;;;;10.90;2.70;;;;;;;;;;5051470;28;20055;-81
2023/05/24 09:20:58;;;;;;;11.73;2.67;;;;;;;;;;5051714;28;20055;-81
2023/05/24 09:23:26;;;;;;;11.55;3.03;;;;;;;;;;5041862;28;20098;-81
2023/05/24 09:25:52;;;;;;;11.43;2.92;;;;;;;;;;5039266;28;20073;-81
2023/05/24 09:28:20;;;;;;;17.10;3.28;;;;;;;;;;5051837;28;20071;-81
2023/05/24 09:30:57;;;;;;;13.18;2.70;;;;;;;;;;5051063;28;20048;-81
2023/05/24 09:33:23;;;;;;;15.50;2.75;;;;;;;;;;5050993;28;20075;-81
2023/05/24 09:35:49;;;;;;;10.93;2.70;;;;;;;;;;5052371;28;20498;-81
2023/05/24 09:38:19;;;;;;;12.18;2.88;;;;;;;;;;5051613;28;20051;-81
2023/05/24 09:40:45;;;;;;;10.82;2.38;;;;;;;;;;5050451;28;20455;-81
2023/05/24 09:43:11;;;;;;;10.45;2.60;;;;;;;;;;5050439;28;20076;-81
2023/05/24 09:45:38;;;;;;;10.45;2.65;;;;;;;;;;5051382;28;20049;-80
2023/05/24 09:48:09;;;;;;;10.77;2.60;;;;;;;;;;5051377;28;20398;-81
2023/05/24 09:50:35;;;;;;;10.00;2.40;;;;;;;;;;5051197;28;20636;-81
2023/05/24 09:53:02;;;;;;;12.32;2.90;;;;;;;;;;5037011;28;20040;-81
2023/05/24 09:55:29;;;;;;;13.52;3.10;;;;;;;;;;5062550;28;20072;-80
2023/05/24 09:58:03;;;;;;;9.00;2.60;;;;;;;;;;5051924;28;20119;-81
2023/05/24 10:00:29;;;;;;;13.15;3.00;;;;;;;;;;5051624;28;20087;-80
2023/05/24 10:03:03;;;;;;;12.77;2.83;;;;;;;;;;5052579;28;20098;-80
2023/05/24 10:05:30;;;;;;;10.10;2.67;;;;;;;;;;5034586;28;20041;-81
2023/05/24 10:07:59;;;;;;;11.68;3.00;;;;;;;;;;5055072;28;20049;-81
2023/05/24 10:10:29;;;;;;;12.93;3.25;;;;;;;;;;5050416;28;20048;-82
2023/05/24 10:12:56;;;;;;;9.90;2.80;;;;;;;;;;5037589;28;20037;-81
2023/05/24 10:15:22;;;;;;;10.15;2.65;;;;;;;;;;5050406;28;20048;-81
2023/05/24 10:17:48;;;;;;;12.05;3.30;;;;;;;;;;5050998;28;20052;-82
2023/05/24 10:20:15;;;;;;;13.23;2.70;;;;;;;;;;5068076;28;20045;-81
2023/05/24 10:22:46;;;;;;;14.77;3.47;;;;;;;;;;5033648;28;20044;-81
2023/05/24 10:25:24;;;;;;;13.23;3.13;;;;;;;;;;5051049;28;20064;-81
2023/05/24 10:27:51;;;;;;;14.02;2.95;;;;;;;;;;5050907;28;20064;-80
2023/05/24 10:30:22;;;;;;;11.30;3.05;;;;;;;;;;5050694;28;20067;-81
2023/05/24 10:32:49;;;;;;;13.55;3.17;;;;;;;;;;5034185;28;20029;-81
2023/05/24 10:35:16;;;;;;;10.25;2.95;;;;;;;;;;5034415;28;20055;-81
2023/05/24 10:37:42;;;;;;;13.77;3.13;;;;;;;;;;5050840;28;20405;-81
2023/05/24 10:40:16;;;;;;;11.25;2.97;;;;;;;;;;5050820;28;20032;-81
2023/05/24 10:42:43;;;;;;;13.90;3.17;;;;;;;;;;5051966;28;20037;-80
2023/05/24 10:45:34;;;;;;;10.55;2.85;;;;;;;;;;5051725;28;20084;-81
2023/05/24 10:48:12;;;;;;;9.70;2.70;;;;;;;;;;5044866;28;20045;-81
2023/05/24 10:50:39;;;;;;;11.77;3.15;;;;;;;;;;5057428;28;20072;-81
2023/05/24 10:53:28;;;;;;;11.20;2.65;;;;;;;;;;5036650;28;20269;-81
2023/05/24 10:56:05;;;;;;;14.07;3.20;;;;;;;;;;5066176;28;20044;-81
2023/05/24 10:58:45;;;;;;;7.97;2.90;;;;;;;;;;5107989;28;20497;-81
2023/05/24 11:01:25;;;;;;;8.07;2.78;;;;;;;;;;5068160;28;20452;-81
2023/05/24 11:03:51;;;;;;;9.48;2.47;;;;;;;;;;5041824;28;20386;-81
2023/05/24 11:06:18;;;;;;;9.13;3.00;;;;;;;;;;5053184;28;20371;-82
2023/05/24 11:08:45;;;;;;;7.75;2.65;;;;;;;;;;5108001;28;20108;-81
2023/05/24 11:11:12;;;;;;;9.70;2.88;;;;;;;;;;5065078;28;20037;-81
2023/05/24 11:13:39;;;;;;;9.80;2.70;;;;;;;;;;5073079;28;20595;-81
2023/05/24 11:16:06;;;;;;;9.20;3.00;;;;;;;;;;5072503;28;20045;-82
2023/05/24 11:18:37;;;;;;;38.40;16.23;;;;;;;;;;5057712;28;20036;-80
2023/05/24 11:21:04;;;;;;;10.40;3.60;;;;;;;;;;5067749;28;20115;-81
2023/05/24 11:23:31;;;;;;;11.23;3.10;;;;;;;;;;5060482;28;20397;-80
2023/05/24 11:25:57;;;;;;;8.95;2.85;;;;;;;;;;5057204;28;20083;-81
2023/05/24 11:28:23;;;;;;;9.73;2.75;;;;;;;;;;5071823;28;20056;-80
2023/05/24 11:30:50;;;;;;;7.68;2.47;;;;;;;;;;5062059;28;20033;-80
2023/05/24 11:33:17;;;;;;;8.30;2.40;;;;;;;;;;5056909;28;20044;-80
2023/05/24 11:35:44;;;;;;;8.82;2.85;;;;;;;;;;5070039;28;20098;-80
2023/05/24 11:38:12;;;;;;;9.98;2.95;;;;;;;;;;5066754;28;20127;-80
2023/05/24 11:40:43;;;;;;;8.90;2.78;;;;;;;;;;5069078;28;20123;-80
2023/05/24 11:43:09;;;;;;;12.30;3.03;;;;;;;;;;5039914;28;20040;-80
2023/05/24 11:45:36;;;;;;;9.50;3.10;;;;;;;;;;5071891;28;20059;-81
2023/05/24 11:48:06;;;;;;;8.60;2.90;;;;;;;;;;5056274;28;20049;-80
2023/05/24 11:50:32;;;;;;;8.18;2.60;;;;;;;;;;5061572;28;20039;-80
2023/05/24 11:53:02;;;;;;;9.10;2.65;;;;;;;;;;5058553;28;20040;-80
2023/05/24 11:55:29;;;;;;;9.70;2.80;;;;;;;;;;5065228;28;20102;-80
2023/05/24 11:57:58;;;;;;;7.95;2.75;;;;;;;;;;5041242;28;20036;-81
2023/05/24 12:00:25;;;;;;;8.68;2.75;;;;;;;;;;5060594;28;20092;-81
2023/05/24 12:02:51;;;;;;;8.13;2.47;;;;;;;;;;5054016;28;20033;-81
2023/05/24 12:05:18;;;;;;;6.50;2.20;;;;;;;;;;5051250;28;20536;-81
2023/05/24 12:07:47;;;;;;;5.85;2.05;;;;;;;;;;5049310;28;20389;-80
2023/05/24 12:10:17;;;;;;;5.18;1.80;;;;;;;;;;5053993;28;20404;-81
2023/05/24 12:12:44;;;;;;;7.22;2.15;;;;;;;;;;5033531;28;20508;-80
2023/05/24 12:15:11;;;;;;;7.70;2.38;;;;;;;;;;5036869;28;20040;-81
2023/05/24 12:17:37;;;;;;;5.53;2.28;;;;;;;;;;5056531;28;20067;-80
2023/05/24 12:20:05;;;;;;;7.97;2.25;;;;;;;;;;5041962;28;20048;-80
2023/05/24 12:22:32;;;;;;;7.75;2.10;;;;;;;;;;5038028;28;20041;-80
2023/05/24 12:24:58;;;;;;;8.85;2.10;;;;;;;;;;5054220;28;20072;-80
2023/05/24 12:27:29;;;;;;;7.35;2.22;;;;;;;;;;5053719;28;20179;-81
2023/05/24 12:29:55;;;;;;;8.50;2.20;;;;;;;;;;5054313;28;20080;-81
2023/05/24 12:32:22;;;;;;;9.52;2.55;;;;;;;;;;5054260;28;20045;-81
2023/05/24 12:34:49;;;;;;;6.15;2.20;;;;;;;;;;5053990;28;20037;-81
2023/05/24 12:37:17;;;;;;;7.85;2.30;;;;;;;;;;5036445;28;20040;-81
2023/05/24 12:39:43;;;;;;;5.57;2.38;;;;;;;;;;5052831;28;20051;-81
2023/05/24 12:42:11;;;;;;;7.38;2.28;;;;;;;;;;5052380;28;20132;-81
2023/05/24 12:44:38;;;;;;;7.22;2.63;;;;;;;;;;5036205;28;20044;-80
2023/05/24 12:47:06;;;;;;;7.45;2.35;;;;;;;;;;5053631;28;20095;-80
2023/05/24 12:49:32;;;;;;;7.95;2.55;;;;;;;;;;5052825;28;20041;-80
2023/05/24 12:51:58;;;;;;;8.45;2.78;;;;;;;;;;5052566;28;20501;-80
2023/05/24 12:54:25;;;;;;;6.63;2.25;;;;;;;;;;5066042;28;20072;-80
2023/05/24 12:56:52;;;;;;;7.88;2.45;;;;;;;;;;5084043;28;20050;-80
2023/05/24 12:59:18;;;;;;;7.13;2.50;;;;;;;;;;5056482;28;20037;-81
2023/05/24 13:01:50;;;;;;;6.15;2.50;;;;;;;;;;5037179;28;20505;-81
2023/05/24 13:04:20;;;;;;;9.50;2.53;;;;;;;;;;5059087;28;20048;-81
2023/05/24 13:06:49;;;;;;;8.98;2.35;;;;;;;;;;5038955;28;20043;-83
2023/05/24 13:09:17;;;;;;;7.80;2.50;;;;;;;;;;5055410;28;20048;-80
2023/05/24 13:11:44;;;;;;;6.72;2.63;;;;;;;;;;5052136;28;20506;-81
2023/05/24 13:14:10;;;;;;;6.93;2.38;;;;;;;;;;5035514;28;20037;-81
2023/05/24 13:16:36;;;;;;;7.30;2.63;;;;;;;;;;5068585;28;20103;-81
2023/05/24 13:19:02;;;;;;;7.88;3.13;;;;;;;;;;5052163;28;20374;-81
2023/05/24 13:21:28;;;;;;;7.60;2.28;;;;;;;;;;5067299;28;20045;-82
2023/05/24 13:23:55;;;;;;;7.13;2.50;;;;;;;;;;5051040;28;20053;-82
2023/05/24 13:26:22;;;;;;;7.07;2.15;;;;;;;;;;5051479;28;20494;-82
2023/05/24 13:28:48;;;;;;;5.43;2.10;;;;;;;;;;5051172;28;20056;-82
2023/05/24 13:31:14;;;;;;;8.80;2.53;;;;;;;;;;5060509;28;20040;-81
2023/05/24 13:33:40;;;;;;;8.15;2.80;;;;;;;;;;5052973;28;20461;-82
2023/05/24 13:36:07;;;;;;;10.40;2.60;;;;;;;;;;5035469;28;20482;-82
2023/05/24 13:38:33;;;;;;;8.50;2.38;;;;;;;;;;5054075;28;20055;-82
2023/05/24 13:40:59;;;;;;;8.27;2.50;;;;;;;;;;5036079;28;20041;-82
2023/05/24 13:43:25;;;;;;;6.53;2.65;;;;;;;;;;5057379;28;20048;-82
2023/05/24 13:45:51;;;;;;;7.50;2.55;;;;;;;;;;5053272;28;20494;-82
2023/05/24 13:48:18;;;;;;;8.55;2.20;;;;;;;;;;5036420;28;20044;-82
2023/05/24 13:50:44;;;;;;;7.10;2.20;;;;;;;;;;5051101;28;20091;-83
2023/05/24 13:53:10;;;;;;;7.90;2.50;;;;;;;;;;5035405;28;20041;-82
2023/05/24 13:55:37;;;;;;;6.22;2.15;;;;;;;;;;5062120;28;20066;-82
2023/05/24 13:58:04;;;;;;;6.40;2.25;;;;;;;;;;5069330;28;20057;-82
2023/05/24 14:00:32;;;;;;;7.07;2.45;;;;;;;;;;5060112;28;20449;-82
2023/05/24 14:02:58;;;;;;;8.43;2.40;;;;;;;;;;5071079;28;20044;-82
2023/05/24 14:05:24;;;;;;;7.28;2.80;;;;;;;;;;5060369;28;20064;-83
2023/05/24 14:07:51;;;;;;;6.60;2.28;;;;;;;;;;5054513;28;20041;-82
2023/05/24 14:10:17;;;;;;;8.32;2.40;;;;;;;;;;5040906;28;20101;-83
2023/05/24 14:12:43;;;;;;;7.45;2.50;;;;;;;;;;5052291;28;20512;-82
2023/05/24 14:15:09;;;;;;;6.95;2.22;;;;;;;;;;5051751;28;20083;-82
2023/05/24 14:17:36;;;;;;;9.23;2.00;;;;;;;;;;5052288;28;20445;-82
2023/05/24 14:20:02;;;;;;;10.55;2.25;;;;;;;;;;5034233;28;20134;-82
2023/05/24 14:22:29;;;;;;;7.13;2.20;;;;;;;;;;5050646;28;20049;-82
2023/05/24 14:24:55;;;;;;;7.10;2.25;;;;;;;;;;5051282;28;20075;-82
2023/05/24 14:27:23;;;;;;;5.88;2.20;;;;;;;;;;5050564;28;20049;-82
2023/05/24 14:29:50;;;;;;;5.75;2.22;;;;;;;;;;5057600;28;20048;-83
2023/05/24 14:32:16;;;;;;;8.07;2.47;;;;;;;;;;5052373;28;20071;-82
2023/05/24 14:34:42;;;;;;;6.40;2.20;;;;;;;;;;5034325;28;20059;-82